TimeCST,TemperatureF,Dew PointF,Humidity,Sea Level PressureIn,VisibilityMPH,Wind Direction,Wind SpeedMPH,Gust SpeedMPH,PrecipitationIn,Events,Conditions,WindDirDegrees,DateUTC
12:53 AM,51.1,43.0,74,29.95,10.0,Calm,Calm,-,N/A,,Clear,0,2013-02-27 06:53:00
1:53 AM,50.0,41.0,71,29.94,10.0,NNW,4.6,-,N/A,,Clear,330,2013-02-27 07:53:00
2:53 AM,48.9,39.0,69,29.94,10.0,Calm,Calm,-,N/A,,Clear,0,2013-02-27 08:53:00
3:53 AM,48.9,37.9,66,29.95,10.0,Calm,Calm,-,N/A,,Clear,0,2013-02-27 09:53:00
4:53 AM,50.0,43.0,77,29.96,10.0,Calm,Calm,-,N/A,,Clear,0,2013-02-27 10:53:00
5:53 AM,48.0,44.1,86,29.96,10.0,Calm,Calm,-,N/A,,Clear,0,2013-02-27 11:53:00
6:53 AM,48.9,44.1,83,29.97,10.0,Calm,Calm,-,N/A,,Clear,0,2013-02-27 12:53:00
7:53 AM,51.1,42.1,71,30.00,10.0,South,3.5,-,N/A,,Clear,180,2013-02-27 13:53:00
8:53 AM,53.1,42.1,66,30.04,10.0,Calm,Calm,-,N/A,,Clear,0,2013-02-27 14:53:00
9:53 AM,57.9,41.0,53,30.05,10.0,South,5.8,-,N/A,,Clear,180,2013-02-27 15:53:00
10:53 AM,62.1,39.9,44,30.05,10.0,SSW,8.1,-,N/A,,Clear,200,2013-02-27 16:53:00
11:53 AM,64.9,36.0,34,30.02,10.0,West,9.2,17.3,N/A,,Clear,270,2013-02-27 17:53:00
12:53 PM,66.9,39.9,37,29.99,10.0,SW,12.7,18.4,N/A,,Clear,220,2013-02-27 18:53:00
1:53 PM,68.0,37.0,32,29.97,10.0,WSW,11.5,21.9,N/A,,Clear,250,2013-02-27 19:53:00
2:53 PM,66.9,44.1,44,29.96,10.0,SW,15.0,25.3,N/A,,Clear,230,2013-02-27 20:53:00
3:53 PM,66.9,45.0,45,29.96,10.0,West,13.8,-,N/A,,Clear,260,2013-02-27 21:53:00
4:53 PM,66.0,46.9,50,29.96,10.0,WSW,15.0,-,N/A,,Clear,250,2013-02-27 22:53:00
5:53 PM,63.0,48.0,58,29.97,10.0,WSW,11.5,-,N/A,,Partly Cloudy,250,2013-02-27 23:53:00
6:53 PM,61.0,48.9,64,29.98,10.0,WSW,8.1,-,N/A,,Clear,240,2013-02-28 00:53:00
7:53 PM,62.1,42.1,48,30.02,10.0,NNW,12.7,21.9,N/A,,Mostly Cloudy,340,2013-02-28 01:53:00
8:53 PM,57.9,37.9,47,30.05,10.0,North,10.4,-,N/A,,Clear,350,2013-02-28 02:53:00
9:53 PM,55.9,37.0,49,30.07,10.0,NNW,8.1,-,N/A,,Clear,340,2013-02-28 03:53:00
10:53 PM,53.1,37.9,57,30.09,10.0,NW,6.9,-,N/A,,Clear,320,2013-02-28 04:53:00
11:53 PM,52.0,36.0,54,30.09,10.0,NNW,10.4,-,N/A,,Clear,340,2013-02-28 05:53:00